Time;durP1;ratioP1;P1;durP2;ratioP2;P2;SDS_P1;SDS_P2;PMS_P1;PMS_P2;Temp;Humidity;BMP_temperature;BMP_pressure;BME280_temperature;BME280_humidity;BME280_pressure;Samples;Min_cycle;Max_cycle;Signal;HPM_P1;HPM_P2
2022/08/07 00:01:08;;;;;;;7.17;3.40;;;13.90;99.90;;;;;;5036479;28;20172;-80
2022/08/07 00:03:33;;;;;;;6.70;3.20;;;13.80;99.90;;;;;;5034164;28;20542;-80
2022/08/07 00:05:59;;;;;;;4.37;3.33;;;13.80;99.90;;;;;;5032142;28;20187;-80
2022/08/07 00:08:25;;;;;;;6.73;3.50;;;13.80;99.90;;;;;;5031525;28;20172;-80
2022/08/07 00:10:52;;;;;;;4.53;3.17;;;13.70;99.90;;;;;;5031422;28;20178;-80
2022/08/07 00:13:20;;;;;;;7.67;3.30;;;13.60;99.90;;;;;;5031252;28;20173;-80
2022/08/07 00:15:46;;;;;;;11.27;3.67;;;13.60;99.90;;;;;;5031445;28;20210;-80
2022/08/07 00:18:16;;;;;;;5.90;3.20;;;13.70;99.90;;;;;;5031206;28;20202;-80
2022/08/07 00:20:42;;;;;;;7.50;3.73;;;13.50;99.90;;;;;;5031122;28;20162;-80
2022/08/07 00:23:08;;;;;;;4.73;3.60;;;13.60;99.90;;;;;;5031452;28;20170;-80
2022/08/07 00:25:34;;;;;;;8.47;3.60;;;13.40;99.90;;;;;;5031680;28;20198;-80
2022/08/07 00:28:00;;;;;;;3.67;3.17;;;13.40;99.90;;;;;;5030337;28;20180;-80
2022/08/07 00:30:26;;;;;;;5.50;3.60;;;13.50;99.90;;;;;;5030807;28;20191;-80
2022/08/07 00:32:51;;;;;;;6.33;3.47;;;13.40;99.90;;;;;;5030765;28;20180;-80
2022/08/07 00:35:18;;;;;;;5.47;3.83;;;13.40;99.90;;;;;;5031371;28;20236;-80
2022/08/07 00:37:44;;;;;;;4.10;3.70;;;13.30;99.90;;;;;;5031047;28;20581;-80
2022/08/07 00:40:10;;;;;;;6.83;3.20;;;13.60;99.90;;;;;;5031533;28;20174;-80
2022/08/07 00:42:36;;;;;;;4.97;3.43;;;13.60;99.90;;;;;;5035491;28;20275;-80
2022/08/07 00:45:03;;;;;;;4.30;3.57;;;13.60;99.90;;;;;;5039839;28;20274;-81
2022/08/07 00:47:29;;;;;;;4.00;3.17;;;13.40;99.90;;;;;;5040494;28;20178;-81
2022/08/07 00:49:55;;;;;;;4.57;3.70;;;13.20;99.90;;;;;;5040208;28;20247;-80
2022/08/07 00:52:20;;;;;;;6.30;3.60;;;13.10;99.90;;;;;;5039316;28;20238;-80
2022/08/07 00:54:47;;;;;;;4.87;3.40;;;13.10;99.90;;;;;;5039726;28;20582;-80
2022/08/07 00:57:14;;;;;;;5.93;3.43;;;13.10;99.90;;;;;;5039536;28;20214;-80
2022/08/07 00:59:40;;;;;;;7.30;3.50;;;13.10;99.90;;;;;;5038749;28;20164;-80
2022/08/07 01:02:07;;;;;;;4.93;3.27;;;13.30;99.90;;;;;;5034340;28;20513;-81
2022/08/07 01:04:33;;;;;;;5.73;3.40;;;13.40;99.90;;;;;;5034663;28;20521;-80
2022/08/07 01:07:00;;;;;;;5.53;3.40;;;13.30;99.90;;;;;;5034357;28;20176;-80
2022/08/07 01:09:26;;;;;;;3.87;3.47;;;13.20;99.90;;;;;;5034866;28;20217;-80
2022/08/07 01:11:52;;;;;;;6.60;3.47;;;13.00;99.90;;;;;;5034273;28;20175;-80
2022/08/07 01:14:20;;;;;;;7.37;3.70;;;13.00;99.90;;;;;;5033817;28;20234;-80
2022/08/07 01:16:46;;;;;;;4.73;3.90;;;13.00;99.90;;;;;;5034529;28;20194;-80
2022/08/07 01:19:12;;;;;;;6.07;4.10;;;12.90;99.90;;;;;;5034303;28;20185;-80
2022/08/07 01:21:38;;;;;;;4.83;3.43;;;12.90;99.90;;;;;;5033629;28;20174;-80
2022/08/07 01:24:06;;;;;;;6.67;3.57;;;13.00;99.90;;;;;;5034052;28;20175;-80
2022/08/07 01:26:32;;;;;;;9.40;3.87;;;13.00;99.90;;;;;;5034507;28;20197;-80
2022/08/07 01:28:59;;;;;;;6.97;3.37;;;13.00;99.90;;;;;;5033810;28;20177;-81
2022/08/07 01:31:30;;;;;;;4.97;3.57;;;12.90;99.90;;;;;;5033301;28;20193;-80
2022/08/07 01:33:57;;;;;;;4.33;3.60;;;12.90;99.90;;;;;;5033429;28;20203;-80
2022/08/07 01:36:24;;;;;;;7.50;3.37;;;12.80;99.90;;;;;;5033964;28;20212;-80
2022/08/07 01:38:50;;;;;;;4.97;3.23;;;13.00;99.90;;;;;;5033516;28;20166;-80
2022/08/07 01:41:19;;;;;;;4.93;3.57;;;13.10;99.90;;;;;;5036217;28;20178;-80
2022/08/07 01:43:45;;;;;;;8.20;3.83;;;13.00;99.90;;;;;;5036314;28;20248;-80
2022/08/07 01:46:12;;;;;;;7.87;3.50;;;13.10;99.90;;;;;;5036867;28;20659;-80
2022/08/07 01:48:39;;;;;;;4.10;3.40;;;12.80;99.90;;;;;;5034813;28;20534;-80
2022/08/07 01:51:08;;;;;;;6.60;3.80;;;12.80;99.90;;;;;;5035579;28;20252;-80
2022/08/07 01:53:38;;;;;;;6.90;3.80;;;12.90;99.90;;;;;;5034416;28;20265;-80
2022/08/07 01:56:13;;;;;;;5.70;3.53;;;12.90;99.90;;;;;;5036153;28;20226;-80
2022/08/07 01:58:43;;;;;;;7.60;3.70;;;13.00;99.90;;;;;;5034631;28;20165;-80
2022/08/07 02:01:14;;;;;;;4.87;3.57;;;12.90;99.90;;;;;;5034034;28;20179;-80
2022/08/07 02:03:47;;;;;;;6.20;4.20;;;12.70;99.90;;;;;;5034293;28;20181;-80
2022/08/07 02:06:16;;;;;;;4.37;3.73;;;12.70;99.90;;;;;;5034613;28;20199;-80
2022/08/07 02:08:44;;;;;;;5.33;3.40;;;12.80;99.90;;;;;;5034030;28;20576;-80
2022/08/07 02:11:11;;;;;;;4.37;3.23;;;12.90;99.90;;;;;;5034000;28;20170;-80
2022/08/07 02:13:38;;;;;;;7.20;3.53;;;12.80;99.90;;;;;;5033716;28;20178;-80
2022/08/07 02:16:06;;;;;;;5.03;3.30;;;12.90;99.90;;;;;;5039247;28;20194;-80
2022/08/07 02:18:35;;;;;;;4.13;3.60;;;12.70;99.90;;;;;;5039579;28;20173;-80
2022/08/07 02:21:03;;;;;;;6.20;3.30;;;12.50;99.90;;;;;;5038238;28;20208;-80
2022/08/07 02:23:32;;;;;;;4.47;3.47;;;12.80;99.90;;;;;;5038091;28;20173;-80
2022/08/07 02:25:59;;;;;;;5.37;3.40;;;12.70;99.90;;;;;;5039083;28;20198;-80
2022/08/07 02:28:28;;;;;;;6.40;3.30;;;12.70;99.90;;;;;;5038324;28;20215;-80
2022/08/07 02:30:55;;;;;;;5.27;3.70;;;12.70;99.90;;;;;;5038553;28;20747;-80
2022/08/07 02:33:25;;;;;;;6.10;3.60;;;12.70;99.90;;;;;;5038557;28;20170;-80
2022/08/07 02:35:52;;;;;;;5.40;3.33;;;12.60;99.90;;;;;;5039131;28;20212;-80
2022/08/07 02:38:22;;;;;;;10.23;3.73;;;12.50;99.90;;;;;;5037983;28;20174;-80
2022/08/07 02:40:48;;;;;;;6.33;4.17;;;12.40;99.90;;;;;;5040081;28;20181;-80
2022/08/07 02:43:15;;;;;;;3.67;3.10;;;12.30;99.90;;;;;;5041524;28;20202;-80
2022/08/07 02:45:41;;;;;;;4.00;3.60;;;12.40;99.90;;;;;;5040884;28;20204;-80
2022/08/07 02:48:08;;;;;;;6.07;3.83;;;12.30;99.90;;;;;;5039875;28;20231;-79
2022/08/07 02:50:38;;;;;;;5.87;3.60;;;12.30;99.90;;;;;;5038629;28;20172;-80
2022/08/07 02:53:10;;;;;;;6.07;4.03;;;12.20;99.90;;;;;;5038602;28;20261;-79
2022/08/07 02:55:40;;;;;;;15.10;4.30;;;12.20;99.90;;;;;;5038534;28;20209;-80
2022/08/07 02:58:10;;;;;;;4.03;3.50;;;12.10;99.90;;;;;;5039009;28;20621;-80
2022/08/07 03:00:37;;;;;;;8.07;4.00;;;12.00;99.90;;;;;;5038151;28;20180;-80
2022/08/07 03:03:06;;;;;;;4.90;3.70;;;12.10;99.90;;;;;;5038039;28;20265;-79
2022/08/07 03:05:35;;;;;;;6.83;4.20;;;12.00;99.90;;;;;;5037644;28;20222;-79
2022/08/07 03:08:02;;;;;;;8.10;4.37;;;12.10;99.90;;;;;;5037828;28;20185;-80
2022/08/07 03:10:29;;;;;;;6.67;4.33;;;12.10;99.90;;;;;;5040124;28;20170;-80
2022/08/07 03:12:55;;;;;;;8.60;5.10;;;12.20;99.90;;;;;;5037882;28;20204;-80
2022/08/07 03:15:22;;;;;;;6.07;4.80;;;12.10;99.90;;;;;;5037923;28;20202;-79
2022/08/07 03:20:22;;;;;;;9.43;4.90;;;12.10;99.90;;;;;;5049583;28;20251;-83
2022/08/07 03:22:49;;;;;;;7.13;5.30;;;12.00;99.90;;;;;;5052184;28;20249;-84
2022/08/07 03:25:16;;;;;;;9.73;5.40;;;12.00;99.90;;;;;;5053659;28;20180;-84
2022/08/07 03:27:44;;;;;;;7.30;4.70;;;11.90;99.90;;;;;;5053209;28;20214;-84
2022/08/07 03:30:11;;;;;;;6.47;4.93;;;12.10;99.90;;;;;;5035376;28;20285;-84
2022/08/07 03:32:39;;;;;;;8.70;5.93;;;12.20;99.90;;;;;;5074389;22;20235;-80
2022/08/07 03:35:10;;;;;;;11.10;5.43;;;12.10;99.90;;;;;;5054482;28;20723;-79
2022/08/07 03:37:37;;;;;;;11.27;6.23;;;12.10;99.90;;;;;;5053874;28;20181;-80
2022/08/07 03:40:05;;;;;;;7.37;5.67;;;12.10;99.90;;;;;;5053968;28;20176;-79
2022/08/07 03:42:33;;;;;;;14.83;6.23;;;12.10;99.90;;;;;;5053505;28;20204;-79
2022/08/07 03:44:59;;;;;;;9.87;6.70;;;12.00;99.90;;;;;;5053738;28;20173;-79
2022/08/07 03:47:26;;;;;;;7.77;5.60;;;11.90;99.90;;;;;;5054341;28;20266;-79
2022/08/07 03:49:52;;;;;;;11.17;6.30;;;11.80;99.90;;;;;;5035903;28;20231;-79
2022/08/07 03:52:37;;;;;;;14.03;6.47;;;11.80;99.90;;;;;;5053716;28;20665;-80
2022/08/07 03:55:03;;;;;;;12.43;6.70;;;11.90;99.90;;;;;;5054177;28;20237;-80
2022/08/07 03:57:31;;;;;;;10.57;6.57;;;11.80;99.90;;;;;;5053534;28;20161;-80
2022/08/07 03:59:57;;;;;;;11.37;6.00;;;11.80;99.90;;;;;;5053645;28;20180;-80
2022/08/07 04:02:23;;;;;;;7.80;5.73;;;11.90;99.90;;;;;;5035471;28;20613;-80
2022/08/07 04:04:49;;;;;;;8.33;6.30;;;11.90;99.90;;;;;;5053928;28;20247;-80
2022/08/07 04:07:19;;;;;;;10.30;5.97;;;11.90;99.90;;;;;;5053433;28;20166;-80
2022/08/07 04:09:48;;;;;;;7.87;5.50;;;12.10;99.90;;;;;;5053658;28;20185;-80
2022/08/07 04:12:15;;;;;;;8.67;5.90;;;12.10;99.90;;;;;;5053563;28;20189;-80
2022/08/07 04:14:42;;;;;;;9.43;6.27;;;11.80;99.90;;;;;;5053628;28;20195;-81
2022/08/07 04:17:08;;;;;;;10.67;6.20;;;11.70;99.90;;;;;;5053244;28;20162;-81
2022/08/07 04:19:35;;;;;;;11.43;6.17;;;11.70;99.90;;;;;;5053537;28;20173;-80
2022/08/07 04:22:01;;;;;;;8.33;6.10;;;11.80;99.90;;;;;;5053529;28;20192;-79
2022/08/07 04:24:28;;;;;;;8.90;6.20;;;11.80;99.90;;;;;;5053525;28;20169;-79
2022/08/07 04:26:54;;;;;;;10.53;6.67;;;11.80;99.90;;;;;;5053608;28;20176;-80
2022/08/07 04:29:19;;;;;;;16.03;6.33;;;12.00;99.90;;;;;;5053483;28;20179;-80
2022/08/07 04:31:45;;;;;;;10.87;6.33;;;12.00;99.90;;;;;;5052630;28;20676;-80
2022/08/07 04:34:11;;;;;;;9.60;6.30;;;11.90;99.90;;;;;;5053097;28;20280;-79
2022/08/07 04:36:39;;;;;;;9.73;6.33;;;11.70;99.90;;;;;;5053661;28;20166;-80
2022/08/07 04:39:05;;;;;;;12.70;6.23;;;12.00;99.90;;;;;;5053389;28;20248;-80
2022/08/07 04:41:30;;;;;;;9.50;6.20;;;12.10;99.90;;;;;;5052609;28;20346;-79
2022/08/07 04:43:57;;;;;;;9.53;6.53;;;12.00;99.90;;;;;;5034241;28;20620;-79
2022/08/07 04:46:35;;;;;;;9.60;7.30;;;12.10;99.90;;;;;;5053088;28;20636;-80
2022/08/07 04:49:29;;;;;;;7.90;6.73;;;12.10;99.90;;;;;;5052615;28;20186;-80
2022/08/07 04:52:18;;;;;;;10.53;6.43;;;12.00;99.90;;;;;;5052405;28;20709;-80
2022/08/07 04:54:58;;;;;;;8.87;6.40;;;12.10;99.90;;;;;;5052780;28;20217;-80
2022/08/07 04:57:34;;;;;;;12.23;6.57;;;12.20;99.90;;;;;;5052785;28;20169;-79
2022/08/07 05:00:14;;;;;;;10.17;6.43;;;12.30;99.90;;;;;;5052622;28;20177;-80
2022/08/07 05:03:06;;;;;;;10.90;6.73;;;12.40;99.90;;;;;;5034352;28;20199;-79
2022/08/07 05:05:44;;;;;;;9.13;6.37;;;12.40;99.90;;;;;;5041667;28;20186;-80
2022/08/07 05:08:35;;;;;;;10.70;5.40;;;12.50;99.90;;;;;;5052807;28;20201;-79
2022/08/07 05:11:08;;;;;;;6.90;5.43;;;12.70;99.90;;;;;;5052735;28;20183;-80
2022/08/07 05:13:38;;;;;;;11.90;5.70;;;12.70;99.90;;;;;;5034044;28;20260;-80
2022/08/07 05:16:06;;;;;;;6.37;5.20;;;12.70;99.90;;;;;;5056853;28;20369;-80
2022/08/07 05:18:40;;;;;;;8.93;6.00;;;12.80;99.90;;;;;;5055980;28;20244;-80
2022/08/07 05:21:09;;;;;;;7.93;5.63;;;12.80;99.90;;;;;;5056307;28;20220;-79
2022/08/07 05:23:40;;;;;;;11.20;5.97;;;13.00;99.90;;;;;;5055824;28;20182;-80
2022/08/07 05:26:11;;;;;;;8.70;5.50;;;13.10;99.90;;;;;;5056155;28;20178;-80
2022/08/07 05:28:37;;;;;;;10.00;5.40;;;13.20;99.90;;;;;;5056086;28;20167;-80
2022/08/07 05:31:04;;;;;;;10.40;6.60;;;13.30;99.90;;;;;;5037724;28;20175;-80
2022/08/07 05:33:32;;;;;;;8.80;6.17;;;13.30;99.90;;;;;;5055852;28;20171;-80
2022/08/07 05:35:59;;;;;;;9.17;6.50;;;13.50;99.90;;;;;;5055955;28;20204;-79
2022/08/07 05:38:25;;;;;;;8.10;5.63;;;13.50;99.90;;;;;;5056056;28;20190;-80
2022/08/07 05:40:51;;;;;;;12.37;6.20;;;13.60;99.90;;;;;;5055945;28;20273;-79
2022/08/07 05:43:18;;;;;;;9.60;6.13;;;13.70;99.90;;;;;;5055488;28;20655;-79
2022/08/07 05:45:43;;;;;;;10.00;5.80;;;13.80;99.90;;;;;;5038052;28;20206;-79
2022/08/07 05:48:09;;;;;;;9.00;6.07;;;13.90;99.90;;;;;;5055962;28;20216;-80
2022/08/07 05:50:35;;;;;;;10.87;6.03;;;13.90;99.90;;;;;;5055989;28;20242;-80
2022/08/07 05:53:02;;;;;;;9.63;5.90;;;14.00;99.90;;;;;;5054379;28;20212;-79
2022/08/07 05:55:29;;;;;;;11.60;6.80;;;14.10;99.90;;;;;;5038353;28;20205;-80
2022/08/07 05:57:55;;;;;;;10.33;6.10;;;14.20;99.90;;;;;;5055821;28;20733;-80
2022/08/07 06:00:23;;;;;;;12.43;5.90;;;14.30;99.90;;;;;;5038179;28;20250;-80
2022/08/07 06:02:51;;;;;;;9.77;5.37;;;14.30;99.90;;;;;;5055787;28;20204;-80
2022/08/07 06:05:19;;;;;;;12.53;5.47;;;14.60;99.90;;;;;;5055585;28;20186;-80
2022/08/07 06:07:45;;;;;;;8.50;5.37;;;14.90;99.90;;;;;;5037865;28;20268;-80
2022/08/07 06:10:11;;;;;;;8.10;5.00;;;15.00;99.90;;;;;;5037459;28;20169;-80
2022/08/07 06:12:37;;;;;;;6.33;4.73;;;15.30;99.90;;;;;;5055164;28;20504;-80
2022/08/07 06:15:03;;;;;;;5.20;3.90;;;16.10;99.90;;;;;;5055967;28;20193;-80
2022/08/07 06:17:30;;;;;;;4.47;4.00;;;16.30;99.90;;;;;;5055886;28;20188;-80
2022/08/07 06:19:57;;;;;;;6.17;4.03;;;16.30;99.90;;;;;;5055494;28;20253;-80
2022/08/07 06:22:23;;;;;;;5.35;4.13;;;17.10;99.90;;;;;;5055714;28;20205;-80
2022/08/07 06:24:49;;;;;;;7.55;4.22;;;17.30;99.90;;;;;;5055979;28;20223;-80
2022/08/07 06:27:22;;;;;;;4.93;3.75;;;17.50;99.90;;;;;;5037068;28;20173;-80
2022/08/07 06:29:49;;;;;;;4.53;3.95;;;17.90;99.90;;;;;;5056075;28;20256;-80
2022/08/07 06:32:14;;;;;;;15.82;3.97;;;18.00;99.90;;;;;;5055978;28;20258;-80
2022/08/07 06:34:40;;;;;;;6.20;3.40;;;18.40;99.90;;;;;;5056500;28;20673;-81
2022/08/07 06:37:06;;;;;;;6.00;3.70;;;18.50;99.90;;;;;;5038658;28;20178;-80
2022/08/07 06:39:31;;;;;;;4.88;3.30;;;18.70;99.90;;;;;;5038764;28;20162;-80
2022/08/07 06:42:29;;;;;;;5.10;3.80;;;18.80;99.90;;;;;;5056695;28;20186;-80
2022/08/07 06:44:56;;;;;;;7.90;3.63;;;18.90;99.90;;;;;;5055798;28;20170;-80
2022/08/07 06:47:22;;;;;;;6.07;3.13;;;19.30;99.90;;;;;;5038978;28;20173;-81
2022/08/07 06:49:48;;;;;;;6.38;3.13;;;19.20;99.90;;;;;;5057127;28;20179;-80
2022/08/07 06:52:15;;;;;;;3.65;2.90;;;19.20;99.90;;;;;;5055745;28;20596;-81
2022/08/07 06:54:42;;;;;;;3.17;2.88;;;19.30;99.90;;;;;;5055922;28;20205;-79
2022/08/07 06:57:08;;;;;;;4.03;2.83;;;19.60;99.90;;;;;;5055752;28;20169;-80
2022/08/07 06:59:38;;;;;;;4.70;3.03;;;19.50;99.90;;;;;;5055464;28;20203;-80
2022/08/07 07:02:07;;;;;;;2.95;2.75;;;19.90;99.90;;;;;;5055179;28;20186;-81
2022/08/07 07:04:33;;;;;;;3.83;3.10;;;20.20;99.90;;;;;;5055935;28;20260;-80
2022/08/07 07:07:01;;;;;;;6.35;3.20;;;20.10;99.90;;;;;;5037821;28;20208;-79
2022/08/07 07:09:29;;;;;;;5.10;2.60;;;21.00;99.90;;;;;;5055843;28;20181;-79
2022/08/07 07:12:06;;;;;;;4.65;2.78;;;21.10;99.90;;;;;;5054842;28;20199;-79
2022/08/07 07:15:03;;;;;;;5.65;2.72;;;21.20;99.90;;;;;;5054898;28;20341;-81
2022/08/07 07:18:13;;;;;;;5.65;2.90;;;21.60;99.90;;;;;;5036958;28;20170;-80
2022/08/07 07:20:44;;;;;;;4.47;2.70;;;22.00;99.90;;;;;;5037477;28;20720;-78
2022/08/07 07:23:11;;;;;;;5.80;2.80;;;21.80;99.90;;;;;;5037193;28;20173;-81
2022/08/07 07:25:39;;;;;;;2.97;2.60;;;22.00;99.90;;;;;;5037588;28;20177;-80
2022/08/07 07:28:50;;;;;;;4.95;2.10;;;22.40;99.90;;;;;;5037414;28;20208;-79
2022/08/07 07:31:23;;;;;;;6.97;2.40;;;22.20;99.90;;;;;;4938339;29;20224;-80
2022/08/07 07:33:54;;;;;;;4.22;2.33;;;22.20;99.50;;;;;;4939099;29;20267;-80
2022/08/07 07:36:23;;;;;;;9.73;2.17;;;22.20;99.50;;;;;;4997298;28;20273;-80
2022/08/07 07:38:49;;;;;;;3.20;2.10;;;22.40;99.00;;;;;;5055282;28;20567;-80
2022/08/07 07:41:18;;;;;;;2.45;2.10;;;22.30;97.50;;;;;;5054428;28;20185;-80
2022/08/07 07:43:47;;;;;;;2.92;2.10;;;22.40;97.00;;;;;;5037539;28;20200;-80
2022/08/07 07:46:14;;;;;;;3.22;1.90;;;23.00;96.60;;;;;;5037507;28;20173;-80
2022/08/07 07:48:41;;;;;;;3.80;2.15;;;23.00;97.40;;;;;;5055399;28;20529;-80
2022/08/07 07:51:08;;;;;;;3.95;1.70;;;23.30;97.00;;;;;;5055387;28;20264;-81
2022/08/07 07:53:43;;;;;;;2.95;2.10;;;23.00;96.30;;;;;;5054518;28;20169;-81
2022/08/07 07:56:11;;;;;;;2.85;1.65;;;24.00;95.50;;;;;;5055688;28;20173;-81
2022/08/07 07:58:38;;;;;;;4.78;1.60;;;23.90;95.30;;;;;;5055346;28;20172;-80
2022/08/07 08:01:07;;;;;;;1.75;1.65;;;24.50;94.30;;;;;;5055473;28;20598;-80
2022/08/07 08:03:35;;;;;;;1.60;1.50;;;24.30;94.20;;;;;;5055376;28;20173;-81
2022/08/07 08:06:01;;;;;;;4.18;1.60;;;24.20;93.80;;;;;;5055531;28;20633;-80
2022/08/07 08:08:29;;;;;;;1.77;1.55;;;25.00;93.40;;;;;;5055397;28;20182;-80
2022/08/07 08:10:56;;;;;;;2.45;1.73;;;24.70;92.40;;;;;;5037431;28;20203;-79
2022/08/07 08:13:25;;;;;;;2.53;1.55;;;24.30;92.20;;;;;;5055433;28;20258;-80
2022/08/07 08:15:51;;;;;;;2.03;1.55;;;24.30;92.00;;;;;;5055366;28;20244;-80
2022/08/07 08:18:18;;;;;;;2.25;1.52;;;23.40;92.50;;;;;;5037140;28;20212;-80
2022/08/07 08:20:46;;;;;;;3.00;1.50;;;23.70;93.20;;;;;;5037026;28;20192;-80
2022/08/07 08:28:49;;;;;;;1.98;1.75;;;25.00;92.70;;;;;;5055560;28;20258;-80
2022/08/07 08:31:24;;;;;;;2.00;1.60;;;24.40;91.20;;;;;;5036777;28;20235;-80
2022/08/07 08:33:53;;;;;;;2.75;1.70;;;24.00;91.10;;;;;;5037555;28;20181;-81
2022/08/07 08:36:23;;;;;;;1.55;1.42;;;24.70;91.90;;;;;;5053705;28;20630;-78
2022/08/07 08:38:49;;;;;;;5.60;1.67;;;25.30;90.60;;;;;;5035589;28;20181;-79
2022/08/07 08:41:39;;;;;;;3.47;1.48;;;25.30;91.20;;;;;;5035204;28;20189;-78
2022/08/07 08:44:25;;;;;;;3.22;1.58;;;25.70;90.10;;;;;;5053068;28;20170;-80
2022/08/07 08:47:10;;;;;;;2.95;1.55;;;25.10;90.70;;;;;;5054008;28;20165;-80
2022/08/07 08:49:46;;;;;;;3.42;1.20;;;25.30;88.60;;;;;;5038496;28;20176;-80
2022/08/07 08:52:24;;;;;;;3.95;1.40;;;24.70;88.50;;;;;;5056952;28;20258;-80
2022/08/07 08:55:08;;;;;;;2.75;1.20;;;25.30;87.00;;;;;;5058872;28;20572;-80
2022/08/07 08:57:38;;;;;;;2.50;1.10;;;24.90;87.10;;;;;;5040757;28;20211;-80
2022/08/07 09:00:09;;;;;;;1.08;0.95;;;25.90;86.50;;;;;;5058307;28;20208;-80
2022/08/07 09:02:38;;;;;;;1.73;1.17;;;25.80;84.10;;;;;;5040460;28;20197;-80
2022/08/07 09:05:33;;;;;;;1.33;1.15;;;25.80;84.30;;;;;;5040551;28;20165;-80
2022/08/07 09:08:17;;;;;;;6.40;1.15;;;25.90;84.00;;;;;;5037010;28;20662;-80
2022/08/07 09:10:58;;;;;;;1.30;1.20;;;26.00;83.40;;;;;;5039736;28;20173;-80
2022/08/07 09:13:35;;;;;;;2.33;1.30;;;24.90;82.20;;;;;;5058185;28;20176;-80
2022/08/07 09:16:21;;;;;;;1.73;1.10;;;26.00;83.10;;;;;;5040442;28;20207;-80
2022/08/07 09:19:01;;;;;;;4.47;1.70;;;26.20;84.40;;;;;;5006684;28;20188;-80
2022/08/07 09:21:30;;;;;;;4.13;1.10;;;25.60;80.90;;;;;;5040221;28;20700;-79
2022/08/07 09:24:14;;;;;;;2.00;1.23;;;26.30;82.00;;;;;;5041245;28;20170;-80
2022/08/07 09:27:03;;;;;;;2.75;0.95;;;25.90;80.50;;;;;;5040670;28;20177;-82
2022/08/07 09:29:45;;;;;;;1.63;1.20;;;26.20;82.10;;;;;;5041094;28;20192;-81
2022/08/07 09:32:59;;;;;;;7.30;1.42;;;25.80;78.70;;;;;;5064557;22;20347;-82
2022/08/07 09:35:46;;;;;;;1.38;0.90;;;26.50;82.30;;;;;;5033135;28;20228;-83
2022/08/07 09:38:39;;;;;;;2.45;1.10;;;26.60;80.70;;;;;;5038558;28;20169;-83
2022/08/07 09:41:33;;;;;;;3.28;0.98;;;26.80;80.30;;;;;;5038124;28;20461;-82
2022/08/07 09:44:20;;;;;;;3.00;1.05;;;26.70;79.80;;;;;;5038268;28;20173;-84
2022/08/07 09:47:05;;;;;;;2.03;1.10;;;25.50;78.50;;;;;;5038121;28;20173;-83
2022/08/07 09:50:12;;;;;;;5.38;1.15;;;25.80;77.30;;;;;;5038294;28;20170;-84
2022/08/07 09:52:55;;;;;;;1.52;1.20;;;25.30;78.80;;;;;;5001134;28;20181;-82
2022/08/07 09:55:44;;;;;;;1.08;1.00;;;25.60;81.50;;;;;;5037608;28;20213;-82
2022/08/07 09:58:25;;;;;;;1.73;1.00;;;25.90;78.90;;;;;;5038457;28;20256;-84
2022/08/07 10:01:21;;;;;;;1.65;1.02;;;26.40;78.30;;;;;;5037837;28;20165;-83
2022/08/07 10:04:14;;;;;;;1.75;1.13;;;25.80;78.40;;;;;;5038233;28;20260;-83
2022/08/07 10:07:02;;;;;;;3.60;1.10;;;26.00;76.80;;;;;;5039403;28;20256;-82
2022/08/07 10:09:36;;;;;;;3.60;1.27;;;26.00;76.50;;;;;;5038185;28;20172;-83
2022/08/07 10:12:28;;;;;;;1.17;1.08;;;26.10;77.70;;;;;;5038243;28;20179;-83
2022/08/07 10:15:04;;;;;;;1.00;1.00;;;27.10;76.90;;;;;;5037452;28;20216;-81
2022/08/07 10:18:21;;;;;;;1.00;1.00;;;27.90;77.40;;;;;;5037455;28;20641;-81
2022/08/07 10:21:34;;;;;;;3.60;1.13;;;27.80;76.40;;;;;;5004463;28;20187;-83
2022/08/07 10:24:15;;;;;;;3.20;1.00;;;27.10;76.10;;;;;;5030920;28;20183;-81
2022/08/07 10:27:19;;;;;;;3.70;1.10;;;27.80;76.20;;;;;;5037922;28;20264;-83
2022/08/07 10:29:59;;;;;;;1.08;0.90;;;27.30;73.90;;;;;;4994685;28;20340;-82
2022/08/07 10:33:03;;;;;;;2.08;1.10;;;27.30;76.00;;;;;;5039187;28;20657;-83
2022/08/07 10:35:47;;;;;;;1.85;0.80;;;28.10;73.50;;;;;;5038593;28;20220;-82
2022/08/07 10:38:38;;;;;;;1.90;1.08;;;28.10;76.20;;;;;;5038132;28;20170;-84
2022/08/07 10:41:34;;;;;;;4.05;1.00;;;27.50;74.80;;;;;;5038288;28;20287;-84
2022/08/07 10:44:23;;;;;;;3.03;0.98;;;27.70;75.40;;;;;;5021388;28;20618;-82
2022/08/07 10:47:10;;;;;;;1.55;0.90;;;27.40;74.50;;;;;;5038532;28;20633;-83
2022/08/07 10:49:53;;;;;;;1.52;1.10;;;27.40;75.00;;;;;;5038114;28;20165;-82
2022/08/07 10:52:51;;;;;;;5.75;1.23;;;27.20;74.40;;;;;;5038262;28;20229;-82
2022/08/07 10:55:23;;;;;;;0.93;0.90;;;27.00;73.80;;;;;;4969204;28;20307;-81
2022/08/07 10:58:03;;;;;;;6.13;1.08;;;26.60;73.10;;;;;;5038052;28;20273;-81
2022/08/07 11:00:35;;;;;;;1.73;0.90;;;27.10;70.30;;;;;;5038298;28;20177;-82
2022/08/07 11:03:15;;;;;;;17.27;1.52;;;27.50;71.60;;;;;;5038130;28;20182;-83
2022/08/07 11:05:59;;;;;;;2.58;1.20;;;28.10;69.80;;;;;;5037860;28;20275;-84
2022/08/07 11:08:35;;;;;;;2.13;1.10;;;28.70;72.60;;;;;;5037209;28;20197;-83
2022/08/07 11:11:24;;;;;;;2.03;1.20;;;28.90;73.50;;;;;;5036885;28;20284;-82
2022/08/07 11:14:11;;;;;;;2.60;0.90;;;28.70;74.70;;;;;;5036373;28;20756;-84
2022/08/07 11:16:47;;;;;;;2.83;1.20;;;29.00;73.50;;;;;;5036960;28;20208;-82
2022/08/07 11:19:16;;;;;;;3.63;1.52;;;28.40;74.80;;;;;;5037036;28;20637;-84
2022/08/07 11:22:06;;;;;;;1.20;0.90;;;28.00;72.80;;;;;;5036751;28;20180;-84
2022/08/07 11:24:49;;;;;;;5.45;1.00;;;28.40;72.40;;;;;;5036614;28;20197;-84
2022/08/07 11:27:42;;;;;;;1.55;1.10;;;27.40;71.80;;;;;;5036779;28;20231;-83
2022/08/07 11:30:12;;;;;;;4.53;1.40;;;27.90;70.30;;;;;;5036821;28;20578;-83
2022/08/07 11:33:01;;;;;;;0.88;0.82;;;28.50;71.30;;;;;;5036504;28;20197;-83
2022/08/07 11:35:38;;;;;;;6.75;2.80;;;28.20;70.50;;;;;;5037330;28;20240;-82
2022/08/07 11:38:08;;;;;;;1.70;1.40;;;28.20;69.70;;;;;;5038196;28;20244;-82
2022/08/07 11:41:04;;;;;;;5.53;1.85;;;28.20;73.80;;;;;;5037403;28;20256;-81
2022/08/07 11:43:57;;;;;;;3.47;1.00;;;28.20;70.10;;;;;;5037424;28;20192;-81
2022/08/07 11:46:35;;;;;;;3.05;1.30;;;28.40;68.80;;;;;;5037953;28;20201;-81
2022/08/07 11:49:31;;;;;;;2.22;1.10;;;29.30;70.70;;;;;;5037161;28;20219;-82
2022/08/07 11:52:13;;;;;;;2.95;1.00;;;30.00;69.70;;;;;;5037286;28;20170;-83
2022/08/07 11:55:10;;;;;;;2.58;1.27;;;27.10;71.50;;;;;;5054736;28;20780;-84
2022/08/07 11:57:44;;;;;;;1.10;1.10;;;26.50;72.50;;;;;;5037372;28;20182;-83
2022/08/07 12:00:12;;;;;;;1.55;0.93;;;26.40;74.30;;;;;;5037466;28;20295;-82
2022/08/07 12:03:09;;;;;;;1.80;1.00;;;26.60;74.40;;;;;;5036124;28;20176;-81
2022/08/07 12:06:02;;;;;;;4.13;1.02;;;26.00;72.80;;;;;;5036992;28;20276;-80
2022/08/07 12:08:31;;;;;;;6.05;1.00;;;25.90;72.10;;;;;;5055304;28;20181;-83
2022/08/07 12:11:02;;;;;;;2.38;1.05;;;26.10;72.20;;;;;;5036919;28;20648;-82
2022/08/07 12:13:37;;;;;;;1.27;1.10;;;25.80;71.40;;;;;;5037214;28;20178;-83
2022/08/07 12:16:09;;;;;;;1.05;0.95;;;25.60;71.60;;;;;;5036576;28;20295;-82
2022/08/07 12:18:54;;;;;;;5.50;1.00;;;26.00;71.90;;;;;;5036506;28;20688;-81
2022/08/07 12:21:23;;;;;;;1.48;1.00;;;26.40;71.30;;;;;;5036092;28;20606;-82
2022/08/07 12:24:00;;;;;;;3.60;1.10;;;27.40;73.00;;;;;;5035673;28;20196;-81
2022/08/07 12:26:32;;;;;;;5.32;1.17;;;27.20;72.30;;;;;;5035986;28;20177;-82
2022/08/07 12:29:24;;;;;;;2.25;1.10;;;27.20;72.20;;;;;;5053006;28;20279;-82
2022/08/07 12:31:56;;;;;;;2.90;1.02;;;26.50;72.20;;;;;;5034744;28;20193;-81
2022/08/07 12:34:24;;;;;;;8.05;1.50;;;25.90;70.10;;;;;;5035812;28;20558;-83
2022/08/07 12:36:52;;;;;;;2.38;1.25;;;26.40;73.40;;;;;;5036900;28;20185;-81
2022/08/07 12:39:20;;;;;;;1.48;0.95;;;26.10;72.10;;;;;;5055047;28;20157;-83
2022/08/07 12:41:45;;;;;;;2.58;1.30;;;26.40;71.70;;;;;;5037810;28;20169;-83
2022/08/07 12:44:13;;;;;;;1.05;0.80;;;26.20;71.80;;;;;;5036996;28;20178;-82
2022/08/07 12:46:50;;;;;;;1.42;1.05;;;26.70;71.00;;;;;;5038376;28;20531;-84
2022/08/07 12:49:41;;;;;;;3.63;0.98;;;26.10;69.90;;;;;;5038438;28;20157;-83
2022/08/07 12:52:09;;;;;;;1.77;1.05;;;25.10;71.40;;;;;;5037676;28;20272;-82
2022/08/07 12:54:53;;;;;;;3.92;1.10;;;25.70;73.00;;;;;;5037199;28;20213;-83
2022/08/07 12:57:26;;;;;;;1.67;1.15;;;26.00;72.40;;;;;;5038666;28;20169;-81
2022/08/07 12:59:53;;;;;;;1.73;0.95;;;25.80;71.60;;;;;;5037856;28;20157;-82
2022/08/07 13:02:45;;;;;;;1.50;1.17;;;25.70;71.40;;;;;;5038152;28;20196;-83
2022/08/07 13:05:48;;;;;;;1.33;0.90;;;26.10;73.50;;;;;;5038506;28;20201;-81
2022/08/07 13:08:30;;;;;;;4.95;1.10;;;26.40;70.40;;;;;;5036523;28;20169;-82
2022/08/07 13:11:10;;;;;;;4.07;1.10;;;25.80;72.30;;;;;;5038069;28;20165;-82
2022/08/07 13:14:08;;;;;;;2.70;1.45;;;26.20;71.90;;;;;;5022266;28;20665;-82
2022/08/07 13:16:43;;;;;;;1.95;1.05;;;26.10;71.10;;;;;;5038596;28;20211;-81
2022/08/07 13:19:14;;;;;;;4.93;1.42;;;26.20;72.60;;;;;;5038384;28;20176;-81
2022/08/07 13:21:54;;;;;;;1.38;1.00;;;25.80;71.90;;;;;;5037861;28;20161;-81
2022/08/07 13:24:31;;;;;;;0.82;0.82;;;26.10;72.70;;;;;;5038092;28;20196;-82
2022/08/07 13:27:09;;;;;;;1.67;1.30;;;25.60;69.90;;;;;;5038047;28;20180;-81